Time;durP1;ratioP1;P1;durP2;ratioP2;P2;SDS_P1;SDS_P2;PMS_P1;PMS_P2;Temp;Humidity;BMP_temperature;BMP_pressure;BME280_temperature;BME280_humidity;BME280_pressure;Samples;Min_cycle;Max_cycle;Signal;HPM_P1;HPM_P2
2023/10/03 00:01:45;;;;;;;8.20;5.40;;;;;;;16.97;90.15;101023.38;106020;1266;99311;-82
2023/10/03 00:04:31;;;;;;;9.70;5.70;;;;;;;16.93;89.92;101020.70;105667;1262;99545;-83
2023/10/03 00:07:17;;;;;;;13.10;6.80;;;;;;;16.90;89.74;101019.59;105764;1265;98010;-84
2023/10/03 00:10:03;;;;;;;11.20;6.30;;;;;;;16.86;89.66;101014.00;105975;1266;97967;-84
2023/10/03 00:12:51;;;;;;;8.90;5.50;;;;;;;16.81;89.76;101016.52;105878;1264;102128;-83
2023/10/03 00:15:43;;;;;;;10.90;6.50;;;;;;;16.75;89.59;101015.67;105735;1267;99199;-83
2023/10/03 00:18:29;;;;;;;11.40;6.30;;;;;;;16.69;89.50;101016.09;105975;1262;97910;-84
2023/10/03 00:21:14;;;;;;;10.90;6.90;;;;;;;16.62;89.93;101015.30;105994;1265;97988;-82
2023/10/03 00:24:01;;;;;;;10.20;6.70;;;;;;;16.54;89.64;101014.91;105705;1266;97688;-82
2023/10/03 00:26:46;;;;;;;10.90;6.60;;;;;;;16.49;89.76;101018.95;105909;1262;102609;-82
2023/10/03 00:29:33;;;;;;;11.10;6.50;;;;;;;16.44;89.77;101018.48;105703;1262;100735;-82
2023/10/03 00:32:18;;;;;;;9.70;5.90;;;;;;;16.40;89.72;101020.33;105928;1262;99227;-83
2023/10/03 00:35:04;;;;;;;10.80;6.20;;;;;;;16.36;89.96;101016.34;105690;1262;97461;-81
2023/10/03 00:37:52;;;;;;;10.30;5.90;;;;;;;16.34;90.06;101013.37;105681;1264;98493;-82
2023/10/03 00:40:38;;;;;;;11.60;6.50;;;;;;;16.29;90.30;101012.33;106013;1266;101384;-83
2023/10/03 00:43:24;;;;;;;15.00;7.10;;;;;;;16.25;90.14;101010.98;106005;1262;99423;-83
2023/10/03 00:46:10;;;;;;;11.10;6.60;;;;;;;16.20;90.36;101005.89;105807;1268;97990;-85
2023/10/03 00:48:56;;;;;;;12.20;7.00;;;;;;;16.17;90.45;101001.65;105654;1262;98895;-82
2023/10/03 00:51:45;;;;;;;15.00;7.10;;;;;;;16.13;90.42;100999.13;105731;1262;98452;-82
2023/10/03 00:54:32;;;;;;;11.50;7.90;;;;;;;16.09;90.66;100997.81;105790;1262;102700;-81
2023/10/03 00:57:18;;;;;;;15.50;8.00;;;;;;;16.06;90.72;100992.20;105598;1269;100444;-83
2023/10/03 01:00:15;;;;;;;13.00;8.30;;;;;;;16.04;90.72;100988.02;105792;1262;97984;-83
2023/10/03 01:03:01;;;;;;;14.50;8.00;;;;;;;16.01;90.90;100986.77;105837;1262;98253;-82
2023/10/03 01:05:47;;;;;;;17.80;8.90;;;;;;;15.98;91.15;100986.29;105846;1268;98502;-85
2023/10/03 01:08:46;;;;;;;14.40;8.00;;;;;;;15.96;91.30;100982.30;105782;1266;102416;-84
2023/10/03 01:11:31;;;;;;;16.20;8.90;;;;;;;15.93;91.23;100976.95;105811;1266;100426;-82
2023/10/03 01:14:17;;;;;;;15.60;8.80;;;;;;;15.91;91.34;100972.84;105615;1267;108611;-82
2023/10/03 01:17:06;;;;;;;15.00;8.70;;;;;;;15.89;91.52;100969.90;105751;1264;97883;-82
2023/10/03 01:19:52;;;;;;;15.40;8.80;;;;;;;15.88;91.75;100968.69;105712;1267;98402;-83
2023/10/03 01:22:39;;;;;;;16.50;8.80;;;;;;;15.88;91.80;100972.89;105927;1262;101481;-83
2023/10/03 01:25:27;;;;;;;12.70;8.00;;;;;;;15.87;92.10;100975.67;105842;1267;99067;-83
2023/10/03 01:28:15;;;;;;;14.00;8.00;;;;;;;15.88;92.23;100977.29;105757;1262;97895;-83
2023/10/03 01:31:01;;;;;;;11.00;7.30;;;;;;;15.88;92.39;100980.29;105588;1269;98152;-83
2023/10/03 01:33:47;;;;;;;15.50;7.00;;;;;;;15.88;92.30;100976.84;105671;1267;98434;-82
2023/10/03 01:36:33;;;;;;;14.80;7.40;;;;;;;15.88;92.54;100977.79;105882;1276;102651;-83
2023/10/03 01:39:19;;;;;;;12.40;7.60;;;;;;;15.87;92.55;100978.42;105629;1262;100063;-83
2023/10/03 01:42:06;;;;;;;14.10;8.10;;;;;;;15.87;92.85;100974.80;105683;1262;97875;-82
2023/10/03 01:44:51;;;;;;;16.40;8.50;;;;;;;15.88;93.13;100977.62;105637;1267;97974;-82
2023/10/03 01:47:45;;;;;;;14.80;9.00;;;;;;;15.87;93.17;100975.80;105737;1268;98081;-82
2023/10/03 01:50:33;;;;;;;14.20;8.70;;;;;;;15.86;92.98;100976.89;105779;1268;102698;-83
2023/10/03 01:53:19;;;;;;;17.00;9.00;;;;;;;15.84;93.21;100975.52;105748;1262;100267;-82
2023/10/03 01:56:06;;;;;;;15.90;8.60;;;;;;;15.82;93.18;100974.25;105696;1267;97895;-84
2023/10/03 01:58:53;;;;;;;13.90;7.60;;;;;;;15.83;93.28;100974.58;105779;1267;99008;-85
2023/10/03 02:01:40;;;;;;;13.40;7.50;;;;;;;15.83;93.64;100974.69;105775;1267;97958;-84
2023/10/03 02:04:28;;;;;;;11.40;6.90;;;;;;;15.83;93.30;100969.66;105791;1262;101411;-83
2023/10/03 02:07:16;;;;;;;10.10;7.60;;;;;;;15.83;93.54;100966.21;105762;1267;100118;-84
2023/10/03 02:10:01;;;;;;;13.30;7.20;;;;;;;15.82;93.99;100960.94;105725;1267;97984;-84
2023/10/03 02:12:56;;;;;;;10.50;6.90;;;;;;;15.81;93.92;100961.80;105633;1264;97942;-81
2023/10/03 02:15:44;;;;;;;10.80;6.90;;;;;;;15.81;93.93;100961.52;105731;1266;99576;-83
2023/10/03 02:18:30;;;;;;;13.10;6.70;;;;;;;15.81;94.15;100956.73;105804;1266;102085;-83
2023/10/03 02:21:16;;;;;;;11.20;6.80;;;;;;;15.82;94.02;100956.79;105887;1268;109046;-82
2023/10/03 02:24:02;;;;;;;11.10;7.20;;;;;;;15.83;94.06;100950.42;105767;1267;98014;-83
2023/10/03 02:26:48;;;;;;;12.30;7.20;;;;;;;15.84;94.27;100943.64;105693;1270;97900;-81
2023/10/03 02:29:34;;;;;;;13.40;7.80;;;;;;;15.85;94.42;100937.52;105628;1267;98599;-84
2023/10/03 02:32:20;;;;;;;10.60;6.80;;;;;;;15.86;94.61;100929.14;105835;1267;102006;-85
2023/10/03 02:35:06;;;;;;;13.90;7.80;;;;;;;15.86;94.54;100918.45;105728;1261;99187;-84
2023/10/03 02:37:57;;;;;;;11.20;7.70;;;;;;;15.85;94.92;100918.20;105601;1271;99273;-84
2023/10/03 02:40:43;;;;;;;14.30;7.20;;;;;;;15.82;95.07;100917.71;105800;1262;98040;-83
2023/10/03 02:43:33;;;;;;;12.20;7.70;;;;;;;15.80;95.22;100921.34;105868;1266;95920;-82
2023/10/03 02:46:18;;;;;;;11.80;7.80;;;;;;;15.76;95.30;100919.73;105741;1268;101491;-82
2023/10/03 02:49:10;;;;;;;12.60;7.30;;;;;;;15.72;95.35;100913.42;105701;1262;100431;-82
2023/10/03 02:51:59;;;;;;;12.70;7.50;;;;;;;15.69;95.42;100905.96;105540;1271;98038;-83
2023/10/03 02:54:45;;;;;;;12.90;7.50;;;;;;;15.67;95.36;100905.59;105679;1263;98044;-82
2023/10/03 02:57:31;;;;;;;11.10;7.30;;;;;;;15.66;95.54;100903.27;105721;1266;98054;-82
2023/10/03 03:00:18;;;;;;;12.60;7.90;;;;;;;15.64;95.53;100900.11;105756;1267;101394;-83
2023/10/03 03:03:09;;;;;;;12.10;7.50;;;;;;;15.63;95.67;100899.79;105748;1276;99215;-83
2023/10/03 03:06:02;;;;;;;12.10;8.10;;;;;;;15.62;95.52;100895.67;105701;1266;98527;-81
2023/10/03 03:08:52;;;;;;;13.40;7.70;;;;;;;15.63;95.55;100889.90;105802;1267;98103;-82
2023/10/03 03:11:47;;;;;;;13.70;8.10;;;;;;;15.64;95.52;100883.95;105899;1267;98004;-82
2023/10/03 03:14:33;;;;;;;14.10;8.70;;;;;;;15.64;95.37;100877.97;105793;1268;102646;-81
2023/10/03 03:17:21;;;;;;;12.80;8.00;;;;;;;15.64;95.26;100872.73;105717;1262;100089;-81
2023/10/03 03:20:17;;;;;;;12.80;8.60;;;;;;;15.65;95.53;100871.08;105547;1267;99289;-81
2023/10/03 03:23:06;;;;;;;11.40;7.30;;;;;;;15.64;95.36;100863.97;105842;1267;97869;-81
2023/10/03 03:26:02;;;;;;;12.70;7.70;;;;;;;15.64;95.12;100859.86;105758;1267;98509;-84
2023/10/03 03:28:50;;;;;;;14.30;8.50;;;;;;;15.62;95.47;100853.42;105933;1264;101369;-83
2023/10/03 03:31:35;;;;;;;14.50;8.00;;;;;;;15.59;95.28;100845.20;105924;1266;100043;-85
2023/10/03 03:34:21;;;;;;;12.90;8.00;;;;;;;15.58;95.02;100835.45;105688;1264;98611;-83
2023/10/03 03:37:21;;;;;;;13.00;7.50;;;;;;;15.58;95.17;100831.02;105672;1267;98057;-81
2023/10/03 03:40:25;;;;;;;13.80;7.60;;;;;;;15.57;95.08;100829.89;105784;1262;98103;-81
2023/10/03 03:43:13;;;;;;;13.30;7.20;;;;;;;15.56;95.00;100830.39;105786;1264;101535;-85
2023/10/03 03:45:58;;;;;;;13.40;7.90;;;;;;;15.55;94.81;100828.19;105810;1264;99098;-84
2023/10/03 03:48:44;;;;;;;14.30;7.90;;;;;;;15.52;94.76;100827.45;105622;1267;98082;-82
2023/10/03 03:51:30;;;;;;;12.30;8.00;;;;;;;15.50;94.66;100822.61;105753;1269;98129;-82
2023/10/03 03:54:15;;;;;;;14.00;8.60;;;;;;;15.46;94.70;100819.96;105613;1264;98385;-81
2023/10/03 03:57:00;;;;;;;13.70;8.70;;;;;;;15.43;94.57;100816.05;105681;1269;102775;-84
2023/10/03 03:59:47;;;;;;;15.80;9.50;;;;;;;15.40;94.70;100811.77;105794;1265;99365;-84
2023/10/03 04:02:33;;;;;;;15.90;10.10;;;;;;;15.37;94.80;100820.20;105879;1266;98474;-82
2023/10/03 04:05:20;;;;;;;15.00;9.40;;;;;;;15.33;94.86;100823.37;105754;1267;97953;-81
2023/10/03 04:08:07;;;;;;;14.40;8.80;;;;;;;15.30;94.76;100822.23;106012;1262;98085;-84
2023/10/03 04:10:54;;;;;;;15.90;9.30;;;;;;;15.28;94.86;100816.70;105705;1269;101440;-83
2023/10/03 04:13:49;;;;;;;13.60;8.30;;;;;;;15.26;94.98;100816.34;105950;1261;99103;-83
2023/10/03 04:16:43;;;;;;;12.50;8.70;;;;;;;15.23;94.81;100814.23;105754;1269;97971;-83
2023/10/03 04:19:29;;;;;;;17.30;10.10;;;;;;;15.20;94.80;100816.06;105596;1267;98061;-82
2023/10/03 04:22:15;;;;;;;20.90;9.90;;;;;;;15.18;94.71;100819.09;105666;1264;98482;-84
2023/10/03 04:25:00;;;;;;;16.50;9.50;;;;;;;15.15;94.92;100822.83;105775;1264;102658;-81
2023/10/03 04:27:47;;;;;;;14.50;9.30;;;;;;;15.13;94.85;100817.03;105795;1266;99169;-84
2023/10/03 04:30:33;;;;;;;14.70;8.90;;;;;;;15.12;94.66;100814.54;105828;1268;98987;-83
2023/10/03 04:33:21;;;;;;;16.40;8.80;;;;;;;15.10;94.93;100812.39;105816;1270;97994;-83
2023/10/03 04:36:09;;;;;;;15.00;8.30;;;;;;;15.08;94.72;100809.61;105562;1268;98481;-82
2023/10/03 04:38:55;;;;;;;16.80;9.00;;;;;;;15.07;95.00;100809.65;105780;1270;102620;-82
2023/10/03 04:41:43;;;;;;;18.30;9.50;;;;;;;15.06;95.14;100803.18;105554;1269;99351;-82
2023/10/03 04:44:29;;;;;;;15.70;9.30;;;;;;;15.03;95.20;100798.91;105613;1269;97807;-83
2023/10/03 04:47:18;;;;;;;14.30;8.60;;;;;;;15.00;95.24;100798.16;105851;1267;97848;-82
2023/10/03 04:50:03;;;;;;;16.70;9.50;;;;;;;14.98;95.45;100800.42;105723;1268;98469;-83
2023/10/03 04:52:49;;;;;;;15.10;8.60;;;;;;;14.97;95.54;100790.55;105659;1264;101383;-82
2023/10/03 04:55:34;;;;;;;13.70;8.80;;;;;;;14.96;95.42;100782.26;105727;1264;99218;-81
2023/10/03 04:58:21;;;;;;;15.70;8.60;;;;;;;14.95;95.38;100783.58;105473;1266;98912;-82
2023/10/03 05:01:08;;;;;;;13.50;8.40;;;;;;;14.95;95.24;100784.16;105548;1271;98062;-82
2023/10/03 05:03:54;;;;;;;13.30;8.50;;;;;;;14.94;95.46;100786.07;105740;1267;98497;-83
2023/10/03 05:06:39;;;;;;;16.50;9.10;;;;;;;14.94;95.52;100784.53;105700;1268;101426;-84
2023/10/03 05:09:30;;;;;;;12.70;8.40;;;;;;;14.93;95.36;100784.77;105883;1264;100319;-82
2023/10/03 05:12:15;;;;;;;13.60;8.30;;;;;;;14.91;95.30;100779.27;105761;1267;97990;-83
2023/10/03 05:15:01;;;;;;;15.90;8.40;;;;;;;14.90;95.70;100774.00;105697;1264;97994;-83
2023/10/03 05:17:50;;;;;;;14.80;8.40;;;;;;;14.91;95.57;100775.03;105475;1264;98390;-82
2023/10/03 05:20:42;;;;;;;13.50;7.80;;;;;;;14.91;95.53;100772.71;105636;1267;102759;-87
2023/10/03 05:23:29;;;;;;;14.50;8.10;;;;;;;14.91;95.87;100773.29;105691;1271;99205;-86
2023/10/03 05:26:21;;;;;;;16.10;9.80;;;;;;;14.90;95.95;100767.56;105633;1264;97885;-84
2023/10/03 05:29:06;;;;;;;17.20;9.00;;;;;;;14.91;96.06;100764.98;105717;1264;98097;-86
2023/10/03 05:31:51;;;;;;;12.60;8.70;;;;;;;14.92;96.23;100763.91;105561;1265;98076;-84
2023/10/03 05:34:37;;;;;;;13.70;8.50;;;;;;;14.93;96.37;100760.47;105796;1263;102689;-86
2023/10/03 05:37:22;;;;;;;11.80;7.90;;;;;;;14.95;96.57;100756.60;105747;1264;99247;-83
2023/10/03 05:40:11;;;;;;;15.70;8.60;;;;;;;14.96;96.67;100752.81;105747;1262;97967;-85
2023/10/03 05:42:57;;;;;;;16.60;9.40;;;;;;;14.99;96.94;100751.61;105832;1263;97986;-86
2023/10/03 05:45:45;;;;;;;17.00;9.30;;;;;;;15.01;97.32;100754.23;105753;1264;98410;-87
2023/10/03 05:48:30;;;;;;;13.70;8.90;;;;;;;15.02;97.53;100753.80;105844;1266;102301;-82
2023/10/03 05:51:16;;;;;;;14.80;9.10;;;;;;;15.05;97.61;100752.67;105842;1269;99382;-83
2023/10/03 05:54:04;;;;;;;12.40;8.80;;;;;;;15.07;97.65;100748.06;105835;1264;97940;-82
2023/10/03 05:56:51;;;;;;;13.70;9.50;;;;;;;15.09;98.01;100742.73;105658;1264;97974;-85
2023/10/03 05:59:36;;;;;;;16.20;9.40;;;;;;;15.12;98.61;100742.73;105560;1262;98038;-82
2023/10/03 06:02:22;;;;;;;15.70;9.50;;;;;;;15.14;98.75;100744.05;105938;1264;102905;-82
2023/10/03 06:05:11;;;;;;;15.80;9.60;;;;;;;15.17;98.91;100742.01;105834;1263;101483;-82
2023/10/03 06:07:56;;;;;;;18.30;9.50;;;;;;;15.21;99.16;100738.97;105950;1267;97980;-84
2023/10/03 06:10:42;;;;;;;16.30;10.20;;;;;;;15.25;99.37;100735.01;105790;1265;98186;-82
2023/10/03 06:13:28;;;;;;;18.10;9.80;;;;;;;15.28;99.46;100731.96;105716;1264;98011;-82
2023/10/03 06:16:14;;;;;;;13.90;8.90;;;;;;;15.32;99.85;100733.48;105874;1260;101413;-82
2023/10/03 06:19:00;;;;;;;22.90;10.40;;;;;;;15.36;99.72;100726.36;105777;1268;100337;-85
2023/10/03 06:21:46;;;;;;;15.00;9.30;;;;;;;15.41;99.87;100725.26;105813;1267;98065;-85
2023/10/03 06:24:33;;;;;;;17.50;9.70;;;;;;;15.47;99.88;100724.85;105937;1267;98192;-84
2023/10/03 06:27:19;;;;;;;15.50;9.30;;;;;;;15.52;99.96;100723.58;105939;1265;96692;-85
2023/10/03 06:30:08;;;;;;;13.90;8.90;;;;;;;15.57;99.74;100727.16;105925;1263;102156;-84
2023/10/03 06:32:54;;;;;;;14.70;9.10;;;;;;;15.62;99.92;100725.98;105775;1262;100580;-85
2023/10/03 06:35:41;;;;;;;17.70;9.40;;;;;;;15.68;99.95;100723.30;105912;1264;98502;-85
2023/10/03 06:38:27;;;;;;;16.10;8.60;;;;;;;15.74;99.88;100723.54;105896;1261;97909;-85
2023/10/03 06:41:20;;;;;;;13.50;8.80;;;;;;;15.80;99.87;100725.32;105742;1269;97981;-81
2023/10/03 06:44:06;;;;;;;14.00;8.20;;;;;;;15.86;99.94;100721.21;105913;1264;102383;-84
2023/10/03 06:46:52;;;;;;;15.50;7.70;;;;;;;15.92;99.80;100723.16;105631;1267;100369;-84
2023/10/03 06:49:38;;;;;;;15.70;8.80;;;;;;;15.99;99.70;100716.25;105991;1262;99115;-82
2023/10/03 06:52:25;;;;;;;13.10;8.10;;;;;;;16.07;99.54;100713.50;105758;1261;98367;-83
2023/10/03 06:55:15;;;;;;;14.10;8.40;;;;;;;16.14;99.16;100715.56;105638;1269;98060;-82
2023/10/03 06:58:02;;;;;;;14.40;8.40;;;;;;;16.22;99.39;100717.06;105784;1264;102731;-82
2023/10/03 07:00:54;;;;;;;16.20;8.20;;;;;;;16.30;99.34;100714.30;105888;1266;100489;-83
2023/10/03 07:03:40;;;;;;;16.80;8.30;;;;;;;16.38;98.95;100713.90;105741;1267;99395;-83
2023/10/03 07:06:25;;;;;;;12.60;8.60;;;;;;;16.46;98.80;100709.83;105777;1260;97979;-83
2023/10/03 07:09:13;;;;;;;12.60;7.90;;;;;;;16.54;98.42;100706.33;105537;1264;98525;-86
2023/10/03 07:12:00;;;;;;;13.90;7.90;;;;;;;16.62;98.14;100702.93;105565;1267;101521;-82
2023/10/03 07:14:48;;;;;;;13.80;7.90;;;;;;;16.70;97.69;100701.55;105535;1269;100047;-88
2023/10/03 07:17:37;;;;;;;14.50;7.50;;;;;;;16.79;97.62;100703.13;105709;1265;97938;-86
2023/10/03 07:20:23;;;;;;;13.70;7.90;;;;;;;16.87;97.43;100701.48;105624;1268;98028;-85
2023/10/03 07:23:08;;;;;;;12.60;7.70;;;;;;;16.98;97.33;100699.99;106053;1263;98051;-85
2023/10/03 07:25:54;;;;;;;17.70;8.70;;;;;;;17.08;97.10;100698.50;106049;1264;101745;-84
2023/10/03 07:28:40;;;;;;;14.70;6.30;;;;;;;17.17;96.56;100698.67;106261;1264;100227;-88
2023/10/03 07:31:27;;;;;;;13.10;7.10;;;;;;;17.26;96.28;100696.83;105836;1267;98690;-84
2023/10/03 07:34:17;;;;;;;10.80;7.20;;;;;;;17.36;96.02;100694.44;105560;1262;98011;-87
2023/10/03 07:37:03;;;;;;;15.00;7.30;;;;;;;17.46;95.75;100690.60;105761;1263;97980;-85
2023/10/03 07:39:48;;;;;;;13.40;7.00;;;;;;;17.57;95.32;100692.40;105995;1262;102061;-82
2023/10/03 07:42:34;;;;;;;11.10;7.40;;;;;;;17.68;94.83;100688.53;105964;1267;100342;-84
2023/10/03 07:45:20;;;;;;;14.70;8.00;;;;;;;17.78;94.57;100686.07;105992;1264;97991;-82
2023/10/03 07:48:09;;;;;;;14.30;7.70;;;;;;;17.88;94.28;100685.19;105823;1266;97887;-84
2023/10/03 07:50:55;;;;;;;17.70;7.40;;;;;;;17.98;94.21;100682.32;105841;1267;98506;-83
2023/10/03 07:53:41;;;;;;;15.90;7.30;;;;;;;18.08;93.73;100680.85;105868;1261;102424;-84
2023/10/03 07:56:30;;;;;;;14.30;7.40;;;;;;;18.19;93.45;100675.59;105633;1262;99276;-83
2023/10/03 07:59:15;;;;;;;11.90;7.20;;;;;;;18.29;92.69;100675.23;105807;1264;98066;-83
2023/10/03 08:02:05;;;;;;;10.70;6.60;;;;;;;18.39;92.31;100675.62;105964;1262;97892;-83
2023/10/03 08:04:50;;;;;;;9.30;5.80;;;;;;;18.47;92.02;100673.83;105849;1262;96572;-84
2023/10/03 08:07:38;;;;;;;12.40;6.50;;;;;;;18.55;91.50;100668.05;105808;1261;101427;-83
2023/10/03 08:10:29;;;;;;;13.00;6.60;;;;;;;18.63;90.83;100661.88;105716;1262;100560;-83
2023/10/03 08:13:17;;;;;;;11.00;6.60;;;;;;;18.70;90.28;100658.57;105595;1262;97926;-82
2023/10/03 08:16:03;;;;;;;9.60;6.50;;;;;;;18.78;90.11;100656.67;105698;1262;98182;-83
2023/10/03 08:18:57;;;;;;;13.80;6.80;;;;;;;18.90;89.79;100662.95;105686;1262;97855;-85
2023/10/03 08:21:44;;;;;;;11.60;6.30;;;;;;;18.98;89.56;100664.98;105854;1263;102604;-83
2023/10/03 08:24:29;;;;;;;11.40;5.90;;;;;;;19.07;88.84;100658.21;105834;1264;100423;-83
2023/10/03 08:27:18;;;;;;;14.70;6.70;;;;;;;19.15;88.61;100655.39;105704;1264;98558;-83
2023/10/03 08:30:05;;;;;;;13.60;6.50;;;;;;;19.23;88.50;100648.86;105893;1262;97889;-84
2023/10/03 08:32:54;;;;;;;12.80;6.30;;;;;;;19.32;88.29;100640.13;105859;1264;98503;-83
2023/10/03 08:35:40;;;;;;;15.80;6.20;;;;;;;19.41;87.74;100630.55;105589;1267;101442;-85
2023/10/03 08:38:26;;;;;;;13.50;6.40;;;;;;;19.50;87.62;100626.59;105806;1262;99180;-87
2023/10/03 08:41:34;;;;;;;10.80;6.20;;;;;;;19.60;86.75;100623.79;105690;1260;98051;-83
2023/10/03 08:44:23;;;;;;;12.10;5.90;;;;;;;19.70;86.39;100619.84;105794;1262;97981;-84
2023/10/03 08:47:11;;;;;;;12.00;6.20;;;;;;;19.79;86.19;100614.77;105623;1264;97962;-84
2023/10/03 08:50:11;;;;;;;9.90;5.80;;;;;;;19.91;85.77;100609.48;105941;1267;102961;-81
2023/10/03 08:52:58;;;;;;;12.10;6.50;;;;;;;20.02;85.41;100605.86;105802;1262;99379;-84
2023/10/03 08:55:48;;;;;;;12.20;6.20;;;;;;;20.13;85.16;100602.48;106034;1262;97983;-84
2023/10/03 08:58:34;;;;;;;10.10;6.00;;;;;;;20.23;83.98;100596.39;105855;1260;97951;-82
2023/10/03 09:01:21;;;;;;;10.50;5.90;;;;;;;20.31;83.62;100595.98;105548;1262;97986;-82
2023/10/03 09:04:15;;;;;;;12.80;5.90;;;;;;;20.39;83.12;100594.23;105664;1267;102721;-82
2023/10/03 09:07:08;;;;;;;11.70;6.30;;;;;;;20.47;82.83;100592.82;105736;1264;99928;-82
2023/10/03 09:10:03;;;;;;;10.80;5.80;;;;;;;20.55;82.38;100592.07;105732;1267;97969;-84
2023/10/03 09:13:04;;;;;;;14.10;5.90;;;;;;;20.62;82.08;100592.54;105753;1260;97998;-83
2023/10/03 09:16:02;;;;;;;9.80;5.80;;;;;;;20.69;81.64;100589.64;105614;1266;97889;-83
2023/10/03 09:18:56;;;;;;;12.10;6.10;;;;;;;20.80;81.21;100583.30;105794;1267;101366;-83
2023/10/03 09:21:41;;;;;;;11.30;5.60;;;;;;;20.92;80.69;100576.12;105687;1262;99882;-82
2023/10/03 09:24:26;;;;;;;12.60;5.80;;;;;;;21.02;80.29;100571.29;105885;1262;97977;-84
2023/10/03 09:27:17;;;;;;;12.50;5.40;;;;;;;21.12;80.20;100571.10;105819;1269;97972;-84
2023/10/03 09:30:08;;;;;;;14.80;6.50;;;;;;;21.20;79.83;100567.05;105894;1266;97980;-83
2023/10/03 09:32:54;;;;;;;9.90;5.90;;;;;;;21.27;79.03;100566.30;105881;1264;102809;-84
2023/10/03 09:35:39;;;;;;;11.30;6.20;;;;;;;21.35;78.82;100562.77;105648;1262;99316;-83
2023/10/03 09:38:42;;;;;;;10.70;5.80;;;;;;;21.45;78.56;100561.36;105781;1267;98991;-83
2023/10/03 09:41:29;;;;;;;13.90;5.60;;;;;;;21.55;77.99;100559.31;105638;1263;97930;-83
2023/10/03 09:44:17;;;;;;;13.60;6.40;;;;;;;21.62;77.59;100555.45;105522;1269;99414;-81
2023/10/03 09:47:06;;;;;;;13.10;6.60;;;;;;;21.69;77.30;100548.75;106053;1266;101488;-83
2023/10/03 09:49:56;;;;;;;12.40;6.10;;;;;;;21.75;76.69;100546.67;105532;1267;99105;-84
2023/10/03 09:52:44;;;;;;;11.50;6.00;;;;;;;21.83;75.87;100547.26;105581;1262;99496;-82
2023/10/03 09:55:41;;;;;;;10.60;6.10;;;;;;;21.90;75.37;100546.22;105592;1266;97904;-84
2023/10/03 09:58:33;;;;;;;15.10;6.70;;;;;;;21.99;75.81;100539.02;105827;1262;98500;-84
2023/10/03 10:01:19;;;;;;;14.40;6.20;;;;;;;22.08;75.41;100534.30;105672;1267;101966;-84
2023/10/03 10:04:10;;;;;;;12.30;6.40;;;;;;;22.17;75.09;100527.77;105852;1262;99217;-83
2023/10/03 10:07:16;;;;;;;12.20;6.10;;;;;;;22.29;74.68;100517.09;105882;1266;98764;-83
2023/10/03 10:10:14;;;;;;;12.00;5.90;;;;;;;22.39;73.95;100512.56;105759;1262;97890;-84
2023/10/03 10:13:27;;;;;;;12.40;6.70;;;;;;;22.49;73.13;100510.16;105581;1262;97859;-83
2023/10/03 10:16:23;;;;;;;14.20;6.60;;;;;;;22.56;72.50;100507.17;105667;1262;101226;-85
2023/10/03 10:19:09;;;;;;;16.70;6.60;;;;;;;22.63;72.23;100501.81;105780;1262;99158;-84
2023/10/03 10:21:59;;;;;;;12.20;6.80;;;;;;;22.69;72.08;100495.83;105741;1267;99127;-85
2023/10/03 10:25:23;;;;;;;12.10;6.60;;;;;;;22.77;72.09;100494.33;105482;1262;98005;-83
2023/10/03 10:28:11;;;;;;;12.70;6.40;;;;;;;22.87;71.76;100487.80;105911;1264;97961;-84
2023/10/03 10:31:15;;;;;;;12.00;6.70;;;;;;;22.95;71.50;100479.46;105804;1260;102076;-84
2023/10/03 10:34:18;;;;;;;12.50;5.80;;;;;;;23.04;71.12;100480.01;105728;1260;101025;-85
2023/10/03 10:37:15;;;;;;;16.20;6.20;;;;;;;23.13;71.16;100475.81;105738;1260;98983;-82
2023/10/03 10:40:21;;;;;;;12.60;6.40;;;;;;;23.22;70.20;100464.39;105638;1260;98065;-84
2023/10/03 10:43:08;;;;;;;12.20;6.50;;;;;;;23.31;69.61;100460.27;105835;1266;97970;-84
2023/10/03 10:46:32;;;;;;;13.50;5.80;;;;;;;23.38;68.85;100457.54;105695;1262;110510;-82
2023/10/03 10:49:30;;;;;;;15.10;6.40;;;;;;;23.42;68.81;100458.68;105991;1265;99199;-83
2023/10/03 10:52:17;;;;;;;14.60;5.90;;;;;;;23.47;68.48;100448.79;105896;1260;97969;-81
2023/10/03 10:55:07;;;;;;;11.20;5.70;;;;;;;23.53;67.71;100441.79;105942;1262;98015;-82
2023/10/03 10:58:12;;;;;;;13.40;6.30;;;;;;;23.58;67.12;100432.09;105948;1261;97938;-81
2023/10/03 11:00:58;;;;;;;12.40;6.10;;;;;;;23.64;66.80;100428.53;105941;1264;102644;-82
2023/10/03 11:03:45;;;;;;;9.60;6.00;;;;;;;23.69;66.27;100428.13;105890;1263;99182;-83
2023/10/03 11:06:30;;;;;;;10.40;5.90;;;;;;;23.72;66.59;100421.45;105821;1266;98455;-82
2023/10/03 11:09:20;;;;;;;11.50;5.90;;;;;;;23.79;65.91;100417.55;105884;1262;97795;-82
2023/10/03 11:12:06;;;;;;;13.00;6.00;;;;;;;23.87;65.69;100415.35;106032;1262;98857;-82
2023/10/03 11:14:55;;;;;;;12.40;5.70;;;;;;;23.95;65.39;100410.72;105931;1261;102712;-83
2023/10/03 11:17:48;;;;;;;13.70;6.20;;;;;;;24.04;65.16;100411.42;106008;1262;99224;-82
2023/10/03 11:20:34;;;;;;;13.50;5.50;;;;;;;24.13;65.54;100408.65;105983;1261;97973;-81
2023/10/03 11:23:19;;;;;;;12.40;6.40;;;;;;;24.15;64.35;100407.45;106030;1264;97999;-83
2023/10/03 11:26:05;;;;;;;12.10;6.30;;;;;;;24.14;63.78;100396.66;105904;1266;97984;-83
2023/10/03 11:28:52;;;;;;;10.70;5.80;;;;;;;24.21;63.79;100389.67;106098;1262;101438;-83
2023/10/03 11:31:40;;;;;;;10.00;5.30;;;;;;;24.32;63.71;100383.11;106079;1265;99573;-82
2023/10/03 11:34:36;;;;;;;10.90;6.10;;;;;;;24.42;63.37;100372.98;106018;1262;98382;-81
2023/10/03 11:37:44;;;;;;;9.70;5.90;;;;;;;24.50;62.66;100370.61;105981;1266;97945;-82
2023/10/03 11:40:30;;;;;;;14.00;6.30;;;;;;;24.50;62.29;100368.15;105941;1266;98280;-82
2023/10/03 11:43:23;;;;;;;9.80;5.80;;;;;;;24.52;62.23;100358.57;106028;1264;102961;-82
2023/10/03 11:46:11;;;;;;;13.30;6.30;;;;;;;24.52;61.76;100359.65;105984;1260;100427;-81
2023/10/03 11:48:58;;;;;;;10.20;5.60;;;;;;;24.49;61.55;100360.23;105868;1262;98695;-81
2023/10/03 11:51:44;;;;;;;11.80;6.10;;;;;;;24.46;61.49;100362.10;106001;1265;97850;-82
2023/10/03 11:54:31;;;;;;;9.80;5.80;;;;;;;24.45;61.82;100355.92;106001;1267;98384;-81
2023/10/03 11:57:17;;;;;;;9.40;5.10;;;;;;;24.45;61.64;100346.44;105786;1267;121848;-83
2023/10/03 12:00:13;;;;;;;10.40;5.30;;;;;;;24.46;61.79;100339.10;106048;1261;100759;-82
2023/10/03 12:02:59;;;;;;;12.40;4.90;;;;;;;24.44;61.59;100332.59;105885;1262;97981;-81
2023/10/03 12:05:46;;;;;;;11.30;5.10;;;;;;;24.43;61.16;100329.26;105877;1262;97994;-82
2023/10/03 12:08:32;;;;;;;8.40;4.20;;;;;;;24.47;61.25;100329.13;106046;1263;97937;-83
2023/10/03 12:11:19;;;;;;;12.50;5.30;;;;;;;24.55;61.15;100326.16;106169;1261;102751;-81
2023/10/03 12:14:05;;;;;;;11.60;4.70;;;;;;;24.62;61.30;100319.04;106246;1260;99100;-82
2023/10/03 12:16:51;;;;;;;8.70;4.60;;;;;;;24.69;61.11;100310.61;105889;1262;97952;-83
2023/10/03 12:19:37;;;;;;;11.40;5.10;;;;;;;24.82;61.21;100305.42;106345;1262;97904;-83
2023/10/03 12:22:22;;;;;;;8.10;4.60;;;;;;;24.93;60.69;100297.39;106118;1264;98475;-83
2023/10/03 12:25:12;;;;;;;8.60;4.40;;;;;;;25.04;60.61;100292.95;106421;1262;101458;-83
2023/10/03 12:27:58;;;;;;;8.60;5.00;;;;;;;25.16;60.35;100285.60;106336;1262;99188;-82
2023/10/03 12:30:44;;;;;;;9.10;4.90;;;;;;;25.28;59.88;100285.85;106456;1262;100118;-82
2023/10/03 12:33:30;;;;;;;12.80;5.70;;;;;;;25.37;59.41;100283.77;106302;1262;97976;-81
2023/10/03 12:36:16;;;;;;;14.30;5.10;;;;;;;25.41;59.03;100277.20;106242;1261;96209;-82
2023/10/03 12:39:05;;;;;;;7.20;3.90;;;;;;;25.44;58.86;100270.34;106128;1262;102741;-82
2023/10/03 12:41:50;;;;;;;10.40;5.10;;;;;;;25.51;59.11;100265.39;106414;1261;99863;-82
2023/10/03 12:44:36;;;;;;;7.40;4.60;;;;;;;25.58;59.29;100263.26;106442;1262;107194;-82